Terminal Aerodrome Forecast
Issued by NWS

Home | Current Version | Previous Version | Text Only | Print | Product List | Glossary On
Versions: 1 2 3 4 5 6 7 8 9 10 11 12 13
214
FTUS44 KJAN 010549 RRA
TAFHKS
TAF
KHKS 010549Z 0106/0206 VRB10KT P6SM -SHRA VCTS SCT030 BKN050CB
      BKN250
     FM010630 VRB06KT P6SM VCSH FEW030 SCT050 BKN100
     FM011030 VRB03KT 5SM BR FEW009 SCT050 SCT250
     FM011400 19005KT P6SM FEW030 SCT050 BKN250
     FM011900 20006KT P6SM VCTS SCT030 BKN050CB BKN250
     FM020100 VRB04KT P6SM FEW050 SCT100 BKN250=

USA.gov is the U.S. government's official web portal to all federal, state and local government web resources and services.